createdAt,value
2022-08-03T00:01:35.993Z,16.16
2022-08-03T00:04:03.551Z,16.19
2022-08-03T00:06:35.052Z,16.28
2022-08-03T00:09:05.859Z,16.26
2022-08-03T00:11:33.340Z,16.18
2022-08-03T00:14:00.180Z,16.08
2022-08-03T00:16:26.814Z,16.06
2022-08-03T00:18:53.352Z,16.14
2022-08-03T00:21:20.087Z,16.08
2022-08-03T00:23:51.668Z,16.04
2022-08-03T00:26:20.409Z,16.06
2022-08-03T00:28:46.935Z,16.12
2022-08-03T00:31:13.865Z,16.07
2022-08-03T00:33:59.493Z,16.00
2022-08-03T00:36:27.970Z,15.57
2022-08-03T00:38:54.915Z,15.34
2022-08-03T00:41:21.369Z,15.27
2022-08-03T00:43:48.057Z,15.46
2022-08-03T00:46:20.589Z,15.54
2022-08-03T00:48:49.678Z,15.60
2022-08-03T00:51:16.613Z,15.68
2022-08-03T00:53:43.495Z,15.74
2022-08-03T00:56:15.052Z,15.72
2022-08-03T00:58:44.795Z,15.75
2022-08-03T01:01:12.495Z,15.71
2022-08-03T01:03:39.816Z,15.68
2022-08-03T01:06:23.466Z,15.52
2022-08-03T01:09:12.177Z,15.51
2022-08-03T01:12:00.723Z,15.58
2022-08-03T01:14:56.698Z,15.42
2022-08-03T01:17:39.950Z,15.35
2022-08-03T01:20:13.518Z,15.38
2022-08-03T01:23:17.092Z,15.39
2022-08-03T01:26:50.860Z,15.17
2022-08-03T01:29:46.494Z,15.11
2022-08-03T01:32:59.862Z,15.07
2022-08-03T01:35:12.703Z,15.04
2022-08-03T01:37:53.046Z,14.89
2022-08-03T01:40:24.774Z,14.92
2022-08-03T01:42:54.470Z,15.01
2022-08-03T01:45:22.775Z,15.04
2022-08-03T01:47:51.711Z,15.03
2022-08-03T01:50:23.940Z,14.98
2022-08-03T01:52:52.671Z,14.99
2022-08-03T01:55:22.515Z,14.96
2022-08-03T01:58:04.723Z,14.94
2022-08-03T02:00:37.319Z,14.87
2022-08-03T02:03:09.678Z,14.84
2022-08-03T02:05:39.846Z,14.86
2022-08-03T02:08:10.964Z,14.78
2022-08-03T02:10:38.794Z,14.75
2022-08-03T02:13:09.399Z,14.76
2022-08-03T02:15:41.279Z,14.72
2022-08-03T02:18:10.527Z,14.70
2022-08-03T02:20:40.430Z,14.58
2022-08-03T02:23:07.501Z,14.53
2022-08-03T02:25:44.584Z,14.54
2022-08-03T02:28:20.389Z,14.56
2022-08-03T02:30:54.747Z,14.58
2022-08-03T02:33:31.600Z,14.60
2022-08-03T02:36:02.071Z,14.69
2022-08-03T02:38:34.576Z,14.77
2022-08-03T02:41:07.223Z,14.84
2022-08-03T02:43:39.216Z,14.73
2022-08-03T02:46:30.353Z,14.46
2022-08-03T02:49:00.538Z,14.46
2022-08-03T02:51:49.522Z,14.55
2022-08-03T02:54:19.850Z,14.49
2022-08-03T02:56:48.447Z,14.42
2022-08-03T02:59:18.590Z,14.33
2022-08-03T03:01:46.064Z,14.33
2022-08-03T03:04:13.932Z,14.34
2022-08-03T03:06:41.371Z,14.28
2022-08-03T03:09:10.033Z,14.34
2022-08-03T03:11:39.127Z,14.43
2022-08-03T03:14:07.248Z,14.50
2022-08-03T03:16:36.504Z,14.56
2022-08-03T03:19:05.299Z,14.50
2022-08-03T03:21:33.838Z,14.36
2022-08-03T03:24:02.026Z,14.30
2022-08-03T03:26:29.072Z,14.11
2022-08-03T03:28:56.155Z,14.06
2022-08-03T03:31:22.936Z,14.02
2022-08-03T03:33:49.884Z,14.04
2022-08-03T03:36:16.528Z,14.15
2022-08-03T03:38:43.108Z,14.21
2022-08-03T03:41:10.247Z,14.33
2022-08-03T03:43:37.096Z,14.37
2022-08-03T03:46:03.883Z,14.36
2022-08-03T03:48:30.581Z,14.21
2022-08-03T03:50:59.200Z,14.05
2022-08-03T03:53:26.753Z,14.01
2022-08-03T03:56:01.927Z,13.98
2022-08-03T03:58:31.626Z,14.01
2022-08-03T04:00:58.248Z,14.13
2022-08-03T04:03:24.851Z,14.17
2022-08-03T04:06:10.236Z,14.20
2022-08-03T04:08:55.423Z,14.15
2022-08-03T04:11:30.145Z,14.15
2022-08-03T04:14:06.492Z,14.18
2022-08-03T04:16:43.443Z,14.29
2022-08-03T04:19:27.043Z,14.35
2022-08-03T04:22:00.150Z,14.25
2022-08-03T04:24:47.200Z,14.10
2022-08-03T04:27:16.515Z,13.84
2022-08-03T04:29:48.562Z,13.93
2022-08-03T04:32:17.988Z,14.08
2022-08-03T04:34:45.101Z,14.24
2022-08-03T04:37:18.922Z,14.39
2022-08-03T04:39:49.742Z,14.40
2022-08-03T04:42:21.156Z,14.38
2022-08-03T04:44:49.263Z,14.39
2022-08-03T04:47:16.419Z,14.37
2022-08-03T04:49:43.977Z,14.31
2022-08-03T04:52:11.591Z,14.26
2022-08-03T04:54:50.187Z,14.27
2022-08-03T04:57:22.370Z,14.32
2022-08-03T05:00:01.046Z,14.33
2022-08-03T05:02:29.806Z,14.37
2022-08-03T05:04:56.400Z,14.38
2022-08-03T05:07:24.730Z,14.36
2022-08-03T05:09:52.747Z,14.34
2022-08-03T05:12:24.283Z,14.32
2022-08-03T05:14:50.837Z,14.40
2022-08-03T05:17:17.377Z,14.43
2022-08-03T05:19:43.883Z,14.49
2022-08-03T05:22:10.490Z,14.54
2022-08-03T05:24:37.045Z,14.61
2022-08-03T05:27:03.655Z,14.68
2022-08-03T05:29:30.163Z,14.75
2022-08-03T05:31:56.646Z,14.79
2022-08-03T05:34:23.158Z,14.82
2022-08-03T05:36:49.663Z,14.87
2022-08-03T05:39:16.195Z,14.90
2022-08-03T05:41:42.687Z,14.94
2022-08-03T05:44:09.196Z,15.02
2022-08-03T05:46:35.703Z,15.08
2022-08-03T05:49:02.298Z,15.17
2022-08-03T05:51:28.904Z,15.24
2022-08-03T05:53:55.450Z,15.29
2022-08-03T05:56:25.800Z,15.40
2022-08-03T05:58:53.265Z,15.54
2022-08-03T06:01:24.392Z,15.63
2022-08-03T06:03:52.164Z,15.74
2022-08-03T06:06:19.019Z,15.82
2022-08-03T06:08:48.625Z,15.92
2022-08-03T06:11:16.355Z,15.96
2022-08-03T06:13:43.891Z,16.03
2022-08-03T06:16:10.883Z,16.15
2022-08-03T06:18:38.705Z,16.25
2022-08-03T06:21:14.540Z,16.33
2022-08-03T06:23:52.784Z,16.42
2022-08-03T06:26:21.717Z,16.49
2022-08-03T06:28:51.857Z,16.59
2022-08-03T06:31:20.879Z,16.71
2022-08-03T06:33:48.423Z,16.78
2022-08-03T06:36:33.946Z,16.82
2022-08-03T06:39:01.067Z,16.98
2022-08-03T06:41:28.200Z,17.12
2022-08-03T06:44:03.733Z,17.27
2022-08-03T06:46:30.968Z,17.40
2022-08-03T06:48:57.667Z,17.51
2022-08-03T06:52:04.060Z,17.60
2022-08-03T06:54:10.940Z,17.70
2022-08-03T06:56:37.701Z,17.82
2022-08-03T06:59:04.236Z,17.97
2022-08-03T07:01:30.817Z,18.15
2022-08-03T07:03:57.397Z,18.30
2022-08-03T07:06:23.913Z,18.46
2022-08-03T07:08:52.916Z,18.61
2022-08-03T07:11:21.074Z,18.77
2022-08-03T07:13:47.563Z,18.92
2022-08-03T07:16:14.327Z,19.07
2022-08-03T07:18:40.909Z,19.20
2022-08-03T07:21:09.207Z,19.34
2022-08-03T07:23:35.720Z,19.48
2022-08-03T07:26:02.256Z,19.66
2022-08-03T07:28:28.831Z,19.79
2022-08-03T07:30:55.445Z,19.96
2022-08-03T07:33:22.334Z,20.10
2022-08-03T07:35:48.844Z,20.22
2022-08-03T07:38:16.173Z,20.34
2022-08-03T07:40:46.142Z,20.51
2022-08-03T07:43:13.040Z,20.66
2022-08-03T07:45:39.619Z,20.80
2022-08-03T07:48:11.646Z,20.94
2022-08-03T07:50:39.081Z,21.09
2022-08-03T07:53:05.739Z,21.25
2022-08-03T07:55:32.273Z,21.35
2022-08-03T07:58:09.714Z,21.40
2022-08-03T08:00:36.701Z,21.52
2022-08-03T08:03:04.213Z,21.62
2022-08-03T08:05:31.443Z,21.68
2022-08-03T08:07:58.078Z,21.85
2022-08-03T08:10:24.721Z,22.00
2022-08-03T08:12:51.357Z,22.08
2022-08-03T08:15:18.088Z,22.19
2022-08-03T08:17:55.023Z,22.25
2022-08-03T08:20:28.310Z,22.35
2022-08-03T08:23:03.543Z,22.38
2022-08-03T08:25:38.684Z,22.52
2022-08-03T08:28:31.709Z,22.58
2022-08-03T08:30:52.119Z,22.65
2022-08-03T08:33:23.093Z,22.74
2022-08-03T08:35:52.922Z,22.79
2022-08-03T08:38:19.431Z,22.93
2022-08-03T08:40:46.234Z,23.10
2022-08-03T08:43:12.774Z,23.12
2022-08-03T08:45:41.590Z,23.18
2022-08-03T08:48:10.977Z,23.24
2022-08-03T08:50:39.120Z,23.36
2022-08-03T08:53:17.470Z,23.47
2022-08-03T08:55:58.460Z,23.54
2022-08-03T08:58:31.229Z,23.64
2022-08-03T09:00:57.897Z,23.72
2022-08-03T09:03:29.742Z,23.88
2022-08-03T09:05:59.262Z,23.96
2022-08-03T09:08:26.037Z,24.14
2022-08-03T09:10:52.827Z,24.20
2022-08-03T09:13:19.442Z,24.26
2022-08-03T09:15:59.088Z,24.39
2022-08-03T09:18:32.713Z,24.47
2022-08-03T09:21:36.759Z,24.55
2022-08-03T09:24:13.028Z,24.64
2022-08-03T09:26:52.230Z,24.73
2022-08-03T09:29:21.112Z,24.82
2022-08-03T09:31:47.713Z,24.92
2022-08-03T09:34:17.269Z,25.01
2022-08-03T09:36:50.087Z,25.06
2022-08-03T09:39:41.324Z,25.12
2022-08-03T09:42:18.409Z,25.17
2022-08-03T09:44:52.382Z,25.22
2022-08-03T09:47:34.059Z,25.36
2022-08-03T09:50:07.933Z,25.48
2022-08-03T09:52:52.254Z,25.55
2022-08-03T09:56:35.216Z,25.61
2022-08-03T09:58:11.540Z,25.73
2022-08-03T10:00:56.227Z,25.77
2022-08-03T10:03:25.248Z,25.92
2022-08-03T10:05:56.089Z,26.04
2022-08-03T10:08:25.757Z,26.14
2022-08-03T10:10:58.473Z,26.24
2022-08-03T10:13:25.203Z,26.39
2022-08-03T10:16:21.601Z,26.53
2022-08-03T10:18:40.935Z,26.58
2022-08-03T10:21:19.489Z,26.65
2022-08-03T10:23:48.199Z,26.71
2022-08-03T10:26:22.389Z,26.75
2022-08-03T10:28:55.885Z,26.83
2022-08-03T10:31:24.635Z,26.87
2022-08-03T10:33:57.304Z,26.90
2022-08-03T10:36:30.478Z,26.90
2022-08-03T10:38:57.720Z,26.98
2022-08-03T10:41:32.451Z,27.02
2022-08-03T10:44:08.154Z,27.03
2022-08-03T10:46:44.514Z,27.14
2022-08-03T10:49:20.680Z,27.17
2022-08-03T10:52:12.760Z,27.30
2022-08-03T10:55:07.612Z,27.35
2022-08-03T10:57:49.619Z,27.44
2022-08-03T11:00:28.363Z,27.46
2022-08-03T11:03:14.600Z,27.55
2022-08-03T11:05:49.187Z,27.61
2022-08-03T11:08:37.412Z,27.64
2022-08-03T11:11:19.178Z,27.70
2022-08-03T11:14:05.093Z,27.67
2022-08-03T11:16:38.970Z,27.79
2022-08-03T11:19:12.471Z,27.88
2022-08-03T11:21:48.893Z,27.93
2022-08-03T11:24:36.889Z,27.97
2022-08-03T11:27:18.726Z,27.99
2022-08-03T11:30:08.411Z,28.08
2022-08-03T11:32:37.629Z,28.17
2022-08-03T11:35:23.798Z,28.17
2022-08-03T11:38:05.640Z,28.22
2022-08-03T11:40:50.428Z,28.18
2022-08-03T11:43:22.752Z,28.28
2022-08-03T11:46:29.589Z,28.38
2022-08-03T11:49:09.511Z,28.26
2022-08-03T11:51:38.652Z,28.46
2022-08-03T11:54:07.027Z,28.51
2022-08-03T11:56:50.180Z,28.55
2022-08-03T11:59:22.030Z,28.56
2022-08-03T12:01:50.256Z,28.53
2022-08-03T12:04:16.882Z,28.60
2022-08-03T12:06:59.506Z,28.66
2022-08-03T12:09:26.040Z,28.75
2022-08-03T12:11:59.632Z,28.81
2022-08-03T12:14:48.601Z,28.86
2022-08-03T12:17:16.155Z,28.89
2022-08-03T12:19:44.123Z,28.82
2022-08-03T12:22:10.678Z,28.88
2022-08-03T12:24:46.834Z,28.99
2022-08-03T12:27:27.986Z,29.14
2022-08-03T12:29:58.761Z,29.28
2022-08-03T12:32:27.600Z,29.36
2022-08-03T12:35:01.110Z,29.39
2022-08-03T12:37:29.184Z,29.56
2022-08-03T12:40:10.577Z,29.66
2022-08-03T12:42:39.829Z,29.84
2022-08-03T12:45:28.904Z,29.85
2022-08-03T12:48:01.666Z,30.00
2022-08-03T12:50:34.759Z,30.03
2022-08-03T12:53:09.171Z,30.02
2022-08-03T12:55:57.300Z,29.93
2022-08-03T12:58:35.593Z,29.71
2022-08-03T13:01:10.073Z,29.72
2022-08-03T13:03:43.548Z,29.77
2022-08-03T13:06:25.151Z,29.80
2022-08-03T13:09:08.238Z,29.83
2022-08-03T13:11:57.827Z,29.89
2022-08-03T13:14:23.689Z,29.95
2022-08-03T13:16:50.638Z,30.03
2022-08-03T13:19:17.233Z,30.15
2022-08-03T13:21:53.906Z,30.17
2022-08-03T13:24:33.152Z,30.21
2022-08-03T13:27:00.836Z,30.29
2022-08-03T13:29:47.376Z,30.31
2022-08-03T13:32:13.923Z,30.40
2022-08-03T13:34:40.552Z,30.49
2022-08-03T13:37:09.237Z,30.68
2022-08-03T13:40:00.255Z,30.80
2022-08-03T13:42:23.409Z,30.76
2022-08-03T13:44:50.695Z,30.81
2022-08-03T13:47:17.431Z,30.88
2022-08-03T13:49:54.318Z,30.70
2022-08-03T13:52:33.624Z,30.74
2022-08-03T13:55:01.467Z,30.82
2022-08-03T13:58:05.775Z,30.83
2022-08-03T14:00:26.446Z,30.77
2022-08-03T14:02:56.270Z,30.84
2022-08-03T14:05:25.061Z,30.87
2022-08-03T14:07:51.579Z,30.84
2022-08-03T14:10:23.324Z,30.75
2022-08-03T14:12:49.917Z,30.59
2022-08-03T14:15:16.421Z,30.47
2022-08-03T14:17:49.892Z,30.37
2022-08-03T14:20:36.336Z,30.34
2022-08-03T14:23:03.617Z,30.27
2022-08-03T14:25:31.189Z,30.28
2022-08-03T14:28:10.259Z,30.34
2022-08-03T14:30:36.874Z,30.27
2022-08-03T14:33:03.827Z,30.16
2022-08-03T14:35:30.369Z,30.04
2022-08-03T14:37:56.885Z,29.93
2022-08-03T14:40:23.378Z,29.87
2022-08-03T14:42:50.056Z,29.89
2022-08-03T14:45:20.112Z,29.91
2022-08-03T14:50:34.600Z,29.93
2022-08-03T14:50:42.937Z,29.92
2022-08-03T14:53:10.943Z,29.88
2022-08-03T14:55:38.543Z,29.82
2022-08-03T14:58:19.380Z,29.92
2022-08-03T15:00:47.508Z,29.99
2022-08-03T15:03:16.685Z,30.07
2022-08-03T15:05:44.475Z,30.12
2022-08-03T15:08:11.088Z,30.10
2022-08-03T15:10:44.195Z,30.18
2022-08-03T15:13:13.390Z,30.17
2022-08-03T15:15:41.172Z,30.12
2022-08-03T15:18:08.267Z,30.05
2022-08-03T15:20:50.761Z,30.07
2022-08-03T15:23:18.824Z,30.03
2022-08-03T15:26:28.841Z,30.00
2022-08-03T15:28:33.977Z,29.98
2022-08-03T15:31:01.738Z,29.99
2022-08-03T15:33:29.422Z,29.89
2022-08-03T15:35:57.232Z,29.92
2022-08-03T15:38:25.838Z,29.92
2022-08-03T15:40:54.960Z,29.92
2022-08-03T15:43:23.435Z,29.88
2022-08-03T15:46:12.792Z,29.84
2022-08-03T15:48:36.777Z,29.72
2022-08-03T15:51:05.463Z,29.64
2022-08-03T15:53:33.373Z,29.60
2022-08-03T15:56:18.737Z,29.55
2022-08-03T15:59:03.618Z,29.51
2022-08-03T16:01:53.268Z,29.53
2022-08-03T16:04:25.981Z,29.60
2022-08-03T16:06:56.340Z,29.65
2022-08-03T16:09:42.201Z,29.60
2022-08-03T16:12:16.444Z,29.54
2022-08-03T16:14:52.667Z,29.52
2022-08-03T16:17:21.264Z,29.59
2022-08-03T16:19:49.469Z,29.65
2022-08-03T16:22:17.385Z,29.67
2022-08-03T16:24:46.880Z,29.71
2022-08-03T16:27:17.641Z,29.81
2022-08-03T16:30:00.084Z,29.85
2022-08-03T16:32:26.665Z,29.91
2022-08-03T16:34:53.206Z,30.02
2022-08-03T16:37:38.262Z,30.06
2022-08-03T16:40:17.234Z,29.97
2022-08-03T16:42:47.022Z,29.92
2022-08-03T16:45:14.212Z,29.95
2022-08-03T16:47:40.843Z,29.99
2022-08-03T16:50:15.434Z,30.01
2022-08-03T16:52:47.008Z,30.02
2022-08-03T16:55:15.904Z,30.05
2022-08-03T16:57:58.491Z,30.03
2022-08-03T17:00:34.265Z,30.05
2022-08-03T17:03:12.481Z,30.01
2022-08-03T17:05:47.777Z,30.00
2022-08-03T17:08:15.936Z,29.95
2022-08-03T17:10:45.604Z,29.84
2022-08-03T17:13:21.561Z,29.79
2022-08-03T17:15:57.616Z,29.73
2022-08-03T17:18:26.680Z,29.65
2022-08-03T17:20:56.342Z,29.58
2022-08-03T17:23:38.899Z,29.51
2022-08-03T17:26:21.049Z,29.51
2022-08-03T17:28:57.789Z,29.47
2022-08-03T17:31:31.813Z,29.43
2022-08-03T17:34:04.353Z,29.46
2022-08-03T17:37:02.116Z,29.43
2022-08-03T17:39:35.853Z,29.32
2022-08-03T17:42:30.542Z,29.29
2022-08-03T17:45:01.972Z,29.30
2022-08-03T17:47:41.292Z,29.35
2022-08-03T17:53:07.375Z,29.23
2022-08-03T17:55:59.005Z,29.17
2022-08-03T17:58:58.481Z,29.12
2022-08-03T18:02:06.487Z,29.02
2022-08-03T18:05:00.690Z,29.00
2022-08-03T18:07:40.946Z,29.02
2022-08-03T18:10:12.080Z,28.99
2022-08-03T18:12:54.471Z,28.88
2022-08-03T18:15:30.123Z,28.81
2022-08-03T18:18:10.323Z,28.68
2022-08-03T18:20:41.985Z,28.58
2022-08-03T18:23:25.139Z,28.51
2022-08-03T18:26:04.809Z,28.39
2022-08-03T18:28:33.662Z,28.30
2022-08-03T18:31:05.587Z,28.16
2022-08-03T18:34:17.563Z,28.02
2022-08-03T18:36:30.127Z,27.89
2022-08-03T18:38:59.659Z,27.80
2022-08-03T18:41:33.586Z,27.67
2022-08-03T18:44:08.996Z,27.56
2022-08-03T18:47:08.036Z,27.37
2022-08-03T18:50:14.154Z,27.21
2022-08-03T18:53:02.483Z,27.03
2022-08-03T18:55:39.079Z,26.90
2022-08-03T18:58:56.432Z,26.73
2022-08-03T19:01:58.010Z,26.58
2022-08-03T19:04:44.419Z,26.44
2022-08-03T19:07:17.761Z,26.30
2022-08-03T19:09:55.663Z,26.19
2022-08-03T19:12:40.615Z,26.05
2022-08-03T19:15:12.871Z,25.98
2022-08-03T19:17:53.287Z,25.88
2022-08-03T19:20:27.069Z,25.74
2022-08-03T19:22:58.211Z,25.64
2022-08-03T19:25:34.676Z,25.51
2022-08-03T19:28:06.265Z,25.40
2022-08-03T19:30:40.254Z,25.28
2022-08-03T19:33:12.116Z,25.22
2022-08-03T19:35:54.938Z,25.09
2022-08-03T19:38:29.186Z,25.01
2022-08-03T19:41:02.134Z,24.94
2022-08-03T19:43:53.040Z,24.82
2022-08-03T19:46:30.634Z,24.63
2022-08-03T19:51:58.243Z,24.33
2022-08-03T19:54:53.366Z,24.28
2022-08-03T19:57:27.174Z,24.18
2022-08-03T19:59:56.458Z,24.12
2022-08-03T20:02:25.787Z,24.02
2022-08-03T20:04:57.665Z,23.91
2022-08-03T20:07:30.728Z,23.88
2022-08-03T20:09:59.509Z,23.80
2022-08-03T20:12:32.129Z,23.69
2022-08-03T20:15:04.785Z,23.50
2022-08-03T20:17:56.521Z,23.45
2022-08-03T20:20:25.405Z,23.37
2022-08-03T20:22:57.751Z,23.29
2022-08-03T20:25:38.549Z,23.14
2022-08-03T20:28:26.766Z,23.07
2022-08-03T20:30:53.445Z,23.06
2022-08-03T20:33:20.276Z,23.03
2022-08-03T20:35:54.515Z,22.92
2022-08-03T20:38:27.107Z,22.79
2022-08-03T20:40:54.620Z,22.70
2022-08-03T20:43:21.607Z,22.56
2022-08-03T20:46:00.113Z,22.54
2022-08-03T20:48:37.173Z,22.50
2022-08-03T20:54:00.177Z,22.46
2022-08-03T20:56:34.271Z,22.34
2022-08-03T20:59:06.979Z,22.23
2022-08-03T21:01:41.782Z,22.23
2022-08-03T21:04:11.179Z,22.18
2022-08-03T21:06:45.772Z,22.06
2022-08-03T21:09:40.082Z,21.91
2022-08-03T21:12:15.293Z,21.59
2022-08-03T21:12:55.448Z,29.32
2022-08-03T21:13:03.003Z,24.46
2022-08-03T21:13:07.508Z,22.48
2022-08-03T21:15:03.872Z,21.36
2022-08-03T21:17:41.868Z,21.40
2022-08-03T21:20:12.081Z,21.49
2022-08-03T21:22:43.734Z,21.51
2022-08-03T21:25:13.839Z,21.47
2022-08-03T21:27:41.269Z,21.35
2022-08-03T21:30:10.907Z,21.20
2022-08-03T21:32:40.713Z,21.18
2022-08-03T21:35:10.973Z,21.05
2022-08-03T21:37:41.298Z,20.92
2022-08-03T21:40:11.995Z,20.88
2022-08-03T21:42:40.575Z,20.80
2022-08-03T21:45:16.870Z,20.71
2022-08-03T21:47:45.217Z,20.78
2022-08-03T21:50:13.731Z,20.84
2022-08-03T21:52:49.046Z,20.91
2022-08-03T21:55:18.596Z,20.94
2022-08-03T21:57:53.300Z,20.75
2022-08-03T22:00:25.449Z,20.62
2022-08-03T22:02:57.319Z,20.50
2022-08-03T22:05:28.130Z,20.46
2022-08-03T22:08:09.751Z,20.53
2022-08-03T22:10:37.005Z,20.56
2022-08-03T22:13:03.772Z,20.50
2022-08-03T22:15:31.104Z,20.41
2022-08-03T22:18:03.251Z,20.31
2022-08-03T22:20:29.965Z,20.31
2022-08-03T22:23:03.452Z,20.33
2022-08-03T22:25:39.274Z,20.33
2022-08-03T22:28:12.626Z,20.23
2022-08-03T22:30:41.145Z,20.19
2022-08-03T22:33:11.962Z,20.11
2022-08-03T22:35:55.635Z,20.02
2022-08-03T22:38:25.160Z,19.97
2022-08-03T22:40:52.647Z,19.89
2022-08-03T22:43:27.158Z,19.80
2022-08-03T22:46:10.370Z,19.75
2022-08-03T22:48:40.755Z,19.71
2022-08-03T22:51:07.779Z,19.70
2022-08-03T22:53:34.829Z,19.70
2022-08-03T22:56:03.132Z,19.66
2022-08-03T22:58:29.688Z,19.66
2022-08-03T23:01:04.115Z,19.58
2022-08-03T23:03:59.018Z,19.49
2022-08-03T23:06:27.050Z,19.36
2022-08-03T23:08:54.198Z,19.31
2022-08-03T23:11:24.227Z,19.25
2022-08-03T23:13:56.454Z,19.18
2022-08-03T23:16:29.089Z,19.13
2022-08-03T23:18:59.430Z,19.11
2022-08-03T23:21:59.977Z,19.08
2022-08-03T23:24:27.518Z,19.04
2022-08-03T23:26:58.205Z,18.99
2022-08-03T23:29:26.445Z,18.93
2022-08-03T23:31:53.912Z,18.94
2022-08-03T23:34:41.634Z,18.91
2022-08-03T23:37:15.345Z,18.74
2022-08-03T23:39:47.004Z,18.65
2022-08-03T23:42:18.067Z,18.65
2022-08-03T23:44:45.503Z,18.63
2022-08-03T23:47:15.029Z,18.60
2022-08-03T23:49:41.638Z,18.64
2022-08-03T23:52:40.583Z,18.55
2022-08-03T23:55:26.684Z,18.47
2022-08-03T23:58:13.330Z,18.44
